Time;durP1;ratioP1;P1;durP2;ratioP2;P2;SDS_P1;SDS_P2;PMS_P1;PMS_P2;Temp;Humidity;BMP_temperature;BMP_pressure;BME280_temperature;BME280_humidity;BME280_pressure;Samples;Min_cycle;Max_cycle;Signal;HPM_P1;HPM_P2
2024/01/06 00:02:07;;;;;;;5.15;3.40;;;;;;;-2.48;60.37;100415.75;4959401;28;20135;-65
2024/01/06 00:04:33;;;;;;;6.50;3.53;;;;;;;-2.82;60.99;100419.78;4955652;28;20038;-64
2024/01/06 00:06:59;;;;;;;6.35;2.85;;;;;;;-2.71;60.81;100425.84;4950055;28;20034;-65
2024/01/06 00:09:24;;;;;;;6.53;3.47;;;;;;;-2.89;61.44;100425.72;4970495;28;20433;-65
2024/01/06 00:11:50;;;;;;;6.05;3.60;;;;;;;-2.68;60.62;100433.53;4961576;28;20031;-64
2024/01/06 00:14:15;;;;;;;7.50;3.55;;;;;;;-3.01;61.72;100428.13;4965336;28;20058;-65
2024/01/06 00:16:41;;;;;;;8.15;3.88;;;;;;;-3.17;62.03;100443.34;4953700;28;20034;-63
2024/01/06 00:19:06;;;;;;;5.45;3.05;;;;;;;-2.93;61.34;100441.84;4971435;28;20057;-66
2024/01/06 00:21:32;;;;;;;7.97;3.78;;;;;;;-3.09;61.27;100436.59;4955835;28;20141;-65
2024/01/06 00:23:57;;;;;;;6.20;3.20;;;;;;;-3.01;61.78;100449.44;4952929;28;20038;-65
2024/01/06 00:26:24;;;;;;;6.45;3.08;;;;;;;-3.33;62.40;100452.56;4956316;28;20022;-66
2024/01/06 00:28:50;;;;;;;6.30;2.97;;;;;;;-3.01;61.80;100449.44;4965829;28;20097;-64
2024/01/06 00:31:17;;;;;;;6.75;3.25;;;;;;;-2.90;60.95;100447.84;4957814;28;20137;-64
2024/01/06 00:33:42;;;;;;;5.60;2.33;;;;;;;-2.97;61.19;100450.34;4950945;28;20477;-64
2024/01/06 00:36:10;;;;;;;5.03;3.80;;;;;;;-3.11;61.61;100453.63;4955067;28;20165;-64
2024/01/06 00:38:36;;;;;;;7.38;3.83;;;;;;;-2.96;61.31;100446.94;4953742;28;20974;-64
2024/01/06 00:41:02;;;;;;;8.43;3.90;;;;;;;-2.69;60.28;100457.41;4955222;28;20049;-65
2024/01/06 00:43:27;;;;;;;7.07;2.90;;;;;;;-2.84;60.60;100465.81;4958037;28;20041;-65
2024/01/06 00:45:53;;;;;;;4.47;2.30;;;;;;;-3.15;60.95;100464.66;4952948;28;21133;-65
2024/01/06 00:48:18;;;;;;;4.68;2.85;;;;;;;-3.00;61.02;100470.78;4981290;28;21007;-63
2024/01/06 00:50:44;;;;;;;5.47;2.58;;;;;;;-2.80;60.67;100473.50;4947426;28;20038;-65
2024/01/06 00:53:09;;;;;;;6.70;3.83;;;;;;;-3.02;60.93;100478.44;4957577;28;20027;-64
2024/01/06 00:55:35;;;;;;;6.15;3.20;;;;;;;-2.85;60.40;100476.00;4954856;28;20034;-63
2024/01/06 00:58:00;;;;;;;6.28;3.72;;;;;;;-2.89;60.37;100489.66;4953838;28;20034;-64
2024/01/06 01:00:27;;;;;;;5.80;2.88;;;;;;;-3.05;60.80;100492.06;4961606;28;20548;-66
2024/01/06 01:02:53;;;;;;;6.55;3.67;;;;;;;-2.97;60.78;100493.81;4977679;28;20035;-64
2024/01/06 01:05:18;;;;;;;4.50;2.70;;;;;;;-2.72;60.00;100493.19;4960968;28;20049;-66
2024/01/06 01:07:44;;;;;;;5.30;3.28;;;;;;;-2.88;60.62;100511.81;4956406;28;20030;-65
2024/01/06 01:10:09;;;;;;;5.68;3.30;;;;;;;-2.81;60.29;100503.34;4960587;28;20582;-64
2024/01/06 01:12:35;;;;;;;5.72;3.30;;;;;;;-2.93;60.87;100508.34;4962302;28;20045;-64
2024/01/06 01:15:01;;;;;;;8.20;3.35;;;;;;;-3.00;60.44;100516.81;4959265;28;20057;-64
2024/01/06 01:17:26;;;;;;;8.88;3.65;;;;;;;-3.10;60.98;100518.41;4964486;28;20034;-63
2024/01/06 01:19:52;;;;;;;6.28;4.00;;;;;;;-3.00;60.68;100520.22;4956072;28;20045;-65
2024/01/06 01:22:17;;;;;;;6.28;3.78;;;;;;;-2.99;60.94;100528.75;4960217;28;20121;-65
2024/01/06 01:24:43;;;;;;;9.20;3.72;;;;;;;-2.94;60.67;100537.31;4954664;28;20035;-65
2024/01/06 01:27:09;;;;;;;8.60;4.10;;;;;;;-3.08;60.60;100540.56;4967522;28;20041;-65
2024/01/06 01:29:34;;;;;;;8.68;3.60;;;;;;;-3.16;60.97;100539.66;4957929;28;20038;-65
2024/01/06 01:32:00;;;;;;;6.93;3.22;;;;;;;-2.77;59.72;100545.16;4957564;28;20062;-63
2024/01/06 01:34:25;;;;;;;7.80;3.42;;;;;;;-3.09;60.51;100555.94;4959061;28;20069;-64
2024/01/06 01:36:51;;;;;;;7.38;4.00;;;;;;;-2.81;59.83;100558.75;4955671;28;20512;-63
2024/01/06 01:39:17;;;;;;;4.68;2.72;;;;;;;-2.97;59.97;100560.31;4948838;28;20064;-63
2024/01/06 01:41:42;;;;;;;5.43;2.35;;;;;;;-2.96;60.27;100559.44;4940037;28;20030;-64
2024/01/06 01:44:08;;;;;;;6.32;3.17;;;;;;;-3.01;60.01;100564.50;4947724;28;20704;-63
2024/01/06 01:46:33;;;;;;;7.63;3.75;;;;;;;-2.84;60.07;100560.44;4955676;28;20146;-64
2024/01/06 01:49:01;;;;;;;5.75;2.88;;;;;;;-2.96;59.90;100569.69;4947033;28;20795;-63
2024/01/06 01:51:30;;;;;;;4.93;2.88;;;;;;;-2.90;59.84;100569.75;4959483;28;20078;-64
2024/01/06 01:53:57;;;;;;;4.18;2.67;;;;;;;-2.94;59.68;100573.97;4978827;28;20042;-63
2024/01/06 01:56:24;;;;;;;4.45;2.08;;;;;;;-3.00;60.06;100573.91;4962490;28;20033;-64
2024/01/06 01:58:50;;;;;;;9.60;3.05;;;;;;;-2.94;59.74;100573.97;4955759;28;20952;-64
2024/01/06 02:01:17;;;;;;;5.53;3.00;;;;;;;-2.76;59.07;100568.22;4960682;28;20036;-64
2024/01/06 02:03:45;;;;;;;4.45;2.97;;;;;;;-2.93;59.64;100574.84;4974068;28;20028;-64
2024/01/06 02:06:11;;;;;;;5.10;2.10;;;;;;;-2.94;59.74;100581.63;4964647;28;20030;-64
2024/01/06 02:08:37;;;;;;;4.30;2.10;;;;;;;-2.90;59.92;100585.94;4958707;28;20504;-64
2024/01/06 02:11:03;;;;;;;6.03;3.40;;;;;;;-3.02;59.91;100587.53;4951736;28;20049;-63
2024/01/06 02:13:37;;;;;;;8.77;3.45;;;;;;;-3.07;59.94;100583.22;4952997;28;20050;-65
2024/01/06 02:16:04;;;;;;;7.57;3.15;;;;;;;-3.05;59.94;100576.44;4963161;28;20066;-64
2024/01/06 02:18:30;;;;;;;4.85;2.15;;;;;;;-2.99;59.79;100585.00;4958969;28;20740;-66
2024/01/06 02:21:02;;;;;;;5.18;3.10;;;;;;;-3.01;59.92;100591.78;4954299;28;20049;-65
2024/01/06 02:23:29;;;;;;;5.95;2.97;;;;;;;-2.98;59.71;100587.59;4957103;28;20539;-64
2024/01/06 02:25:55;;;;;;;4.25;2.28;;;;;;;-2.97;59.60;100585.88;4948895;28;20100;-65
2024/01/06 02:28:20;;;;;;;6.22;1.98;;;;;;;-3.07;59.88;100596.00;4965806;28;20093;-64
2024/01/06 02:30:46;;;;;;;5.18;2.58;;;;;;;-2.96;59.40;100595.25;4955504;28;20643;-65
2024/01/06 02:33:11;;;;;;;5.97;2.88;;;;;;;-2.78;59.10;100594.59;4956166;28;20158;-64
2024/01/06 02:35:37;;;;;;;6.57;3.47;;;;;;;-2.64;58.54;100596.47;4953582;28;20050;-66
2024/01/06 02:38:03;;;;;;;4.65;2.50;;;;;;;-2.61;58.70;100605.00;4953594;28;20157;-67
2024/01/06 02:40:28;;;;;;;5.28;3.20;;;;;;;-3.00;59.67;100603.75;4959405;28;20046;-66
2024/01/06 02:42:54;;;;;;;5.97;2.75;;;;;;;-2.86;59.39;100615.00;4959595;28;20096;-66
2024/01/06 02:45:19;;;;;;;8.57;2.58;;;;;;;-3.01;59.41;100614.81;4958573;28;20050;-66
2024/01/06 02:47:45;;;;;;;6.05;3.17;;;;;;;-2.87;59.48;100621.81;4949954;28;20046;-65
2024/01/06 02:50:10;;;;;;;3.72;2.35;;;;;;;-3.05;59.71;100627.56;4951935;28;20048;-66
2024/01/06 02:52:36;;;;;;;6.78;2.92;;;;;;;-2.92;59.08;100631.09;4960735;28;20058;-69
2024/01/06 02:55:02;;;;;;;8.40;2.60;;;;;;;-3.28;60.23;100628.97;4955747;28;20436;-66
2024/01/06 02:57:30;;;;;;;8.38;2.70;;;;;;;-3.00;59.08;100629.31;4961467;28;20026;-65
2024/01/06 02:59:56;;;;;;;4.35;2.05;;;;;;;-3.12;59.54;100640.25;4953156;28;20050;-66
2024/01/06 03:02:22;;;;;;;4.85;2.65;;;;;;;-3.02;59.53;100636.13;4959607;28;20031;-64
2024/01/06 03:04:48;;;;;;;5.70;2.95;;;;;;;-2.93;59.57;100647.31;4954222;28;20603;-67
2024/01/06 03:07:13;;;;;;;3.33;1.92;;;;;;;-2.79;59.33;100644.91;4965923;28;20097;-65
2024/01/06 03:09:39;;;;;;;3.85;2.42;;;;;;;-2.67;58.68;100639.94;4956168;28;20054;-66
2024/01/06 03:12:07;;;;;;;5.10;2.80;;;;;;;-2.58;58.45;100648.53;4964812;28;20738;-66
2024/01/06 03:14:36;;;;;;;4.43;2.03;;;;;;;-2.76;58.78;100652.63;4967648;28;20121;-65
2024/01/06 03:17:02;;;;;;;3.80;1.92;;;;;;;-2.82;58.89;100650.00;4966757;28;20043;-65
2024/01/06 03:19:28;;;;;;;5.68;2.65;;;;;;;-2.74;58.97;100660.31;4950327;28;20046;-64
2024/01/06 03:21:53;;;;;;;4.15;2.20;;;;;;;-2.86;59.05;100659.31;4936426;28;20050;-64
2024/01/06 03:24:21;;;;;;;5.35;2.97;;;;;;;-2.84;59.04;100662.75;4945244;28;20100;-65
2024/01/06 03:26:46;;;;;;;5.75;3.22;;;;;;;-2.71;58.96;100662.91;4944865;28;20093;-65
2024/01/06 03:29:12;;;;;;;5.78;3.15;;;;;;;-2.54;58.50;100670.75;4949639;28;20047;-65
2024/01/06 03:31:37;;;;;;;7.07;2.88;;;;;;;-2.51;58.32;100665.69;4943026;28;20158;-67
2024/01/06 03:34:03;;;;;;;5.35;2.95;;;;;;;-2.42;57.85;100670.91;4940352;28;20133;-67
2024/01/06 03:36:28;;;;;;;7.63;2.88;;;;;;;-2.49;58.05;100669.09;4946173;28;20139;-63
2024/01/06 03:38:54;;;;;;;4.20;2.60;;;;;;;-2.58;58.58;100674.13;4941695;28;20058;-66
2024/01/06 03:41:19;;;;;;;5.32;3.28;;;;;;;-2.52;58.36;100671.63;4939259;28;20050;-67
2024/01/06 03:43:45;;;;;;;4.43;2.00;;;;;;;-2.58;58.80;100680.13;4936109;28;20073;-67
2024/01/06 03:46:10;;;;;;;4.13;2.50;;;;;;;-2.50;58.31;100683.59;4933180;28;20497;-64
2024/01/06 03:48:35;;;;;;;6.25;3.33;;;;;;;-2.50;58.37;100687.88;4955545;28;20031;-66
2024/01/06 03:51:02;;;;;;;8.38;2.92;;;;;;;-2.47;58.53;100695.56;4951159;28;20718;-67
2024/01/06 03:53:28;;;;;;;6.47;2.60;;;;;;;-2.59;58.91;100687.78;4958797;28;20470;-66
2024/01/06 03:55:53;;;;;;;4.90;2.67;;;;;;;-2.59;58.83;100688.63;4954481;28;20100;-67
2024/01/06 03:58:19;;;;;;;4.90;2.80;;;;;;;-2.60;58.75;100696.28;4962766;28;20049;-67
2024/01/06 04:00:44;;;;;;;6.40;3.17;;;;;;;-2.61;59.00;100692.00;4987710;28;20058;-66
2024/01/06 04:03:10;;;;;;;5.55;2.88;;;;;;;-2.61;58.88;100697.13;4955149;28;20120;-66
2024/01/06 04:05:35;;;;;;;5.28;2.90;;;;;;;-2.73;59.27;100703.81;4987129;28;20050;-66
2024/01/06 04:08:00;;;;;;;7.03;2.97;;;;;;;-2.85;59.49;100701.09;4952316;28;20027;-64
2024/01/06 04:10:26;;;;;;;6.72;3.20;;;;;;;-2.64;58.87;100698.81;4947398;28;20066;-64
2024/01/06 04:12:54;;;;;;;4.65;2.47;;;;;;;-2.70;59.22;100703.00;4949086;28;20101;-66
2024/01/06 04:15:19;;;;;;;7.35;3.47;;;;;;;-2.57;59.03;100706.56;4954891;28;22219;-64
2024/01/06 04:17:48;;;;;;;5.22;2.33;;;;;;;-2.44;58.77;100708.41;4957135;28;20074;-65
2024/01/06 04:20:14;;;;;;;5.78;2.92;;;;;;;-2.62;59.07;100716.75;4954122;28;20158;-66
2024/01/06 04:22:39;;;;;;;7.35;3.20;;;;;;;-2.52;58.77;100704.91;4955727;28;20679;-65
2024/01/06 04:25:05;;;;;;;8.07;3.38;;;;;;;-2.56;58.75;100721.06;4945457;28;20117;-65
2024/01/06 04:27:31;;;;;;;5.45;3.00;;;;;;;-2.33;58.45;100727.31;4971836;28;20062;-64
2024/01/06 04:29:56;;;;;;;4.90;3.35;;;;;;;-2.52;58.78;100718.56;4953053;28;20110;-65
2024/01/06 04:32:22;;;;;;;6.53;3.40;;;;;;;-2.51;58.81;100710.06;4956347;28;20037;-65
2024/01/06 04:34:47;;;;;;;7.15;3.55;;;;;;;-2.40;58.70;100729.78;4965381;28;21173;-63
2024/01/06 04:37:13;;;;;;;7.63;3.35;;;;;;;-2.50;58.91;100733.94;4947538;28;20030;-65
2024/01/06 04:39:38;;;;;;;7.72;3.45;;;;;;;-2.43;58.57;100731.44;4972069;28;20416;-64
2024/01/06 04:42:04;;;;;;;5.22;3.15;;;;;;;-2.41;58.43;100736.59;4953606;28;20433;-66
2024/01/06 04:44:30;;;;;;;6.88;3.97;;;;;;;-2.45;58.88;100747.63;4955137;28;20038;-64
2024/01/06 04:46:55;;;;;;;5.20;3.13;;;;;;;-2.53;58.89;100742.44;4951886;28;20031;-64
2024/01/06 04:49:21;;;;;;;5.47;3.22;;;;;;;-2.38;58.67;100744.34;4951330;28;20042;-64
2024/01/06 04:51:48;;;;;;;8.45;3.70;;;;;;;-2.25;58.25;100753.00;4953301;28;20054;-65
2024/01/06 04:54:13;;;;;;;6.78;4.15;;;;;;;-2.31;58.25;100746.13;4952555;28;20050;-64
2024/01/06 04:56:39;;;;;;;6.68;3.35;;;;;;;-2.37;58.55;100757.97;4956859;28;20423;-65
2024/01/06 04:59:05;;;;;;;7.63;3.70;;;;;;;-2.47;59.34;100759.56;4949544;28;20045;-64
2024/01/06 05:01:31;;;;;;;7.32;3.67;;;;;;;-2.38;58.48;100759.69;4948647;28;20135;-63
2024/01/06 05:03:56;;;;;;;8.13;3.17;;;;;;;-2.52;58.56;100767.19;4967106;28;20069;-66
2024/01/06 05:06:23;;;;;;;7.07;3.58;;;;;;;-2.47;59.09;100774.91;4955020;28;20465;-65
2024/01/06 05:08:48;;;;;;;6.88;3.40;;;;;;;-2.44;58.60;100774.97;4953567;28;20038;-65
2024/01/06 05:11:14;;;;;;;11.05;4.43;;;;;;;-2.43;58.82;100766.44;4952518;28;20233;-64
2024/01/06 05:13:39;;;;;;;8.95;4.03;;;;;;;-2.49;58.97;100771.47;4967244;28;20064;-64
2024/01/06 05:16:05;;;;;;;7.70;3.55;;;;;;;-2.28;58.49;100781.97;4960087;28;20628;-65
2024/01/06 05:18:31;;;;;;;7.30;3.50;;;;;;;-2.37;59.02;100778.47;4947317;28;20038;-65
2024/01/06 05:20:56;;;;;;;5.35;3.47;;;;;;;-2.56;58.66;100785.03;4952792;28;20122;-65
2024/01/06 05:23:22;;;;;;;6.10;3.50;;;;;;;-2.61;59.12;100781.56;4956525;28;20056;-64
2024/01/06 05:25:47;;;;;;;5.88;3.63;;;;;;;-2.53;58.88;100785.09;4984953;28;20065;-64
2024/01/06 05:28:13;;;;;;;7.20;3.75;;;;;;;-2.80;59.54;100785.56;4949779;28;20500;-65
2024/01/06 05:30:38;;;;;;;10.40;3.97;;;;;;;-2.53;58.95;100792.78;4957871;28;20034;-65
2024/01/06 05:33:04;;;;;;;6.25;3.63;;;;;;;-2.29;58.84;100790.50;4952437;28;20042;-65
2024/01/06 05:35:29;;;;;;;6.10;3.65;;;;;;;-2.50;59.26;100797.91;4968229;28;20059;-64
2024/01/06 05:37:55;;;;;;;7.65;3.72;;;;;;;-2.58;59.38;100799.50;4948529;28;20045;-64
2024/01/06 05:40:21;;;;;;;7.72;3.50;;;;;;;-2.52;59.38;100797.03;4948190;28;20042;-65
2024/01/06 05:42:47;;;;;;;7.43;4.13;;;;;;;-2.47;59.54;100806.50;4949524;28;20043;-64
2024/01/06 05:45:13;;;;;;;6.78;3.22;;;;;;;-2.31;58.99;100806.69;4963870;28;20140;-66
2024/01/06 05:47:38;;;;;;;8.40;4.15;;;;;;;-2.29;58.85;100815.22;4956250;28;20030;-63
2024/01/06 05:50:05;;;;;;;6.07;4.05;;;;;;;-2.41;59.10;100818.50;4948642;28;20413;-64
2024/01/06 05:52:30;;;;;;;12.30;4.78;;;;;;;-2.45;59.18;100822.75;4983108;28;20062;-64
2024/01/06 05:54:56;;;;;;;12.10;3.80;;;;;;;-2.58;60.05;100828.53;4948485;28;20130;-64
2024/01/06 05:57:21;;;;;;;10.77;4.88;;;;;;;-2.37;59.11;100832.22;4940747;28;20393;-64
2024/01/06 05:59:47;;;;;;;6.55;3.50;;;;;;;-2.19;58.56;100826.47;4948432;28;20751;-65
2024/01/06 06:02:13;;;;;;;9.88;5.32;;;;;;;-2.44;59.23;100833.84;4964415;28;20679;-63
2024/01/06 06:04:39;;;;;;;7.95;4.80;;;;;;;-2.32;58.87;100840.81;4964167;28;20047;-63
2024/01/06 06:07:04;;;;;;;6.63;4.75;;;;;;;-2.26;58.83;100848.56;4949692;28;20319;-64
2024/01/06 06:09:30;;;;;;;8.63;4.82;;;;;;;-2.38;59.22;100844.16;4949163;28;20121;-63
2024/01/06 06:11:55;;;;;;;8.02;4.70;;;;;;;-2.27;58.80;100841.72;4948664;28;20026;-65
2024/01/06 06:14:21;;;;;;;9.82;4.78;;;;;;;-2.08;58.21;100847.94;4957587;28;20409;-65
2024/01/06 06:16:47;;;;;;;7.20;4.70;;;;;;;-2.11;58.06;100850.44;4958396;28;20681;-64
2024/01/06 06:19:17;;;;;;;7.47;4.28;;;;;;;-2.37;59.06;100853.56;4957885;28;20069;-65
2024/01/06 06:21:43;;;;;;;9.88;4.25;;;;;;;-2.48;58.76;100860.22;4960233;28;20110;-65
2024/01/06 06:24:08;;;;;;;12.48;4.57;;;;;;;-2.36;58.92;100862.09;4956896;28;20771;-65
2024/01/06 06:26:34;;;;;;;6.75;4.05;;;;;;;-2.47;59.15;100861.94;4961246;28;20037;-66
2024/01/06 06:29:00;;;;;;;9.65;5.15;;;;;;;-2.42;59.25;100870.56;4955553;28;20563;-64
2024/01/06 06:31:25;;;;;;;8.98;4.53;;;;;;;-2.27;58.60;100877.56;4965612;28;20034;-64
2024/01/06 06:33:51;;;;;;;9.95;5.22;;;;;;;-2.36;59.15;100888.53;4959527;28;20033;-64
2024/01/06 06:36:19;;;;;;;10.98;5.15;;;;;;;-2.65;59.40;100886.44;4952737;28;20047;-64
2024/01/06 06:38:46;;;;;;;8.23;4.53;;;;;;;-2.44;58.85;100898.69;4951618;28;20149;-65
2024/01/06 06:41:12;;;;;;;12.27;5.47;;;;;;;-2.24;58.51;100898.09;4955439;28;20448;-64
2024/01/06 06:43:38;;;;;;;7.60;4.95;;;;;;;-2.30;58.85;100906.56;4986722;28;20486;-63
2024/01/06 06:46:04;;;;;;;9.55;4.32;;;;;;;-2.28;58.41;100909.16;4951296;28;20751;-66
2024/01/06 06:48:29;;;;;;;9.63;5.03;;;;;;;-2.31;58.48;100909.06;4967848;28;20038;-66
2024/01/06 06:50:55;;;;;;;8.82;4.57;;;;;;;-2.33;58.57;100916.75;4957625;28;20117;-64
2024/01/06 06:53:20;;;;;;;11.73;5.20;;;;;;;-2.24;58.25;100916.88;4962663;28;20049;-63
2024/01/06 06:55:46;;;;;;;8.55;4.78;;;;;;;-2.38;58.71;100918.41;4958628;28;20122;-65
2024/01/06 06:58:12;;;;;;;13.48;5.13;;;;;;;-2.38;58.59;100915.84;4948217;28;20598;-64
2024/01/06 07:00:38;;;;;;;6.90;4.20;;;;;;;-2.36;58.55;100924.38;4953269;28;20039;-65
2024/01/06 07:03:04;;;;;;;8.18;4.70;;;;;;;-2.38;58.08;100931.19;4954486;28;20042;-66
2024/01/06 07:05:29;;;;;;;12.00;5.20;;;;;;;-2.46;58.54;100935.34;4956372;28;20405;-65
2024/01/06 07:07:55;;;;;;;10.65;4.47;;;;;;;-2.40;58.63;100935.44;4958959;28;20077;-66
2024/01/06 07:10:21;;;;;;;8.00;4.20;;;;;;;-2.49;58.30;100940.41;4952923;28;20050;-63
2024/01/06 07:12:46;;;;;;;6.25;3.20;;;;;;;-2.46;58.80;100943.03;4959638;28;20059;-65
2024/01/06 07:15:12;;;;;;;11.25;5.45;;;;;;;-2.36;58.23;100944.84;4953332;28;20034;-65
2024/01/06 07:17:38;;;;;;;9.93;4.40;;;;;;;-2.43;58.57;100955.84;4957717;28;20939;-66
2024/01/06 07:20:06;;;;;;;7.40;5.05;;;;;;;-2.42;58.78;100949.91;4953327;28;20063;-65
2024/01/06 07:22:34;;;;;;;8.07;4.97;;;;;;;-2.46;58.72;100958.38;4963959;28;20048;-65
2024/01/06 07:25:00;;;;;;;7.90;3.75;;;;;;;-2.40;58.64;100970.38;4953300;28;20416;-64
2024/01/06 07:27:25;;;;;;;13.77;5.57;;;;;;;-2.47;58.62;100959.19;4951859;28;20045;-66
2024/01/06 07:29:51;;;;;;;12.75;5.10;;;;;;;-2.36;58.34;100967.91;4983775;28;20497;-64
2024/01/06 07:32:19;;;;;;;9.45;4.53;;;;;;;-2.35;58.27;100977.31;4968733;28;20144;-65
2024/01/06 07:34:45;;;;;;;8.30;4.15;;;;;;;-2.39;58.69;100985.78;4951598;28;20042;-64
2024/01/06 07:37:10;;;;;;;7.78;4.40;;;;;;;-2.28;58.31;100985.94;4953587;28;20065;-64
2024/01/06 07:39:36;;;;;;;11.18;5.05;;;;;;;-2.21;58.38;100996.28;4985651;28;20078;-65
2024/01/06 07:42:02;;;;;;;12.25;5.38;;;;;;;-2.21;58.20;100998.84;4970618;28;20045;-66
2024/01/06 07:44:28;;;;;;;8.23;4.93;;;;;;;-2.25;58.34;101004.75;4955221;28;20046;-66
2024/01/06 07:46:53;;;;;;;9.35;4.45;;;;;;;-2.35;58.87;101002.91;4946343;28;20034;-64
2024/01/06 07:49:19;;;;;;;10.43;4.60;;;;;;;-2.12;58.16;101015.19;4957299;28;20116;-64
2024/01/06 07:51:45;;;;;;;9.30;4.78;;;;;;;-2.24;58.50;101021.88;4945943;28;20058;-64
2024/01/06 07:54:11;;;;;;;9.95;5.65;;;;;;;-2.19;58.13;101028.75;4933616;28;20853;-67
2024/01/06 07:56:37;;;;;;;9.52;5.20;;;;;;;-2.23;58.03;101031.25;4940039;28;20030;-66
2024/01/06 07:59:04;;;;;;;11.05;5.47;;;;;;;-2.28;57.98;101038.00;4951854;28;20097;-66
2024/01/06 08:01:30;;;;;;;10.77;5.30;;;;;;;-2.17;58.06;101043.31;4973083;28;20617;-66
2024/01/06 08:03:57;;;;;;;10.52;5.53;;;;;;;-2.23;57.95;101043.19;4954590;28;20144;-67
2024/01/06 08:06:22;;;;;;;11.95;5.55;;;;;;;-2.19;58.22;101047.53;4960533;28;20054;-64
2024/01/06 08:08:48;;;;;;;13.00;6.88;;;;;;;-2.27;58.17;101057.69;4957318;28;20898;-67
2024/01/06 08:11:13;;;;;;;13.68;5.72;;;;;;;-2.32;58.48;101066.09;4969949;28;20612;-63
2024/01/06 08:13:39;;;;;;;14.10;6.35;;;;;;;-2.44;58.33;101061.66;4955751;28;20047;-66
2024/01/06 08:16:05;;;;;;;10.70;4.90;;;;;;;-2.18;57.92;101063.75;4956874;28;20049;-64
2024/01/06 08:18:31;;;;;;;9.73;5.05;;;;;;;-2.40;58.50;101065.09;4959454;28;20057;-67
2024/01/06 08:20:56;;;;;;;14.25;7.35;;;;;;;-2.21;58.10;101073.13;4951892;28;20054;-63
2024/01/06 08:23:22;;;;;;;10.80;5.55;;;;;;;-2.38;58.44;101076.25;4946690;28;20085;-65
2024/01/06 08:25:48;;;;;;;12.80;5.57;;;;;;;-2.39;58.48;101080.50;4975698;28;20045;-67
2024/01/06 08:28:14;;;;;;;12.50;5.90;;;;;;;-2.42;58.11;101085.59;4952732;28;20070;-67
2024/01/06 08:30:40;;;;;;;12.93;5.72;;;;;;;-2.34;58.49;101091.69;4955497;28;20058;-66
2024/01/06 08:33:06;;;;;;;10.77;6.03;;;;;;;-2.41;58.55;101087.28;4954207;28;20046;-65
2024/01/06 08:35:31;;;;;;;14.10;6.18;;;;;;;-2.40;58.48;101094.16;4940707;28;20098;-67
2024/01/06 08:37:57;;;;;;;11.90;6.35;;;;;;;-2.38;58.74;101094.16;4954735;28;20054;-65
2024/01/06 08:40:22;;;;;;;8.88;5.32;;;;;;;-2.22;57.75;101096.16;4951163;28;20130;-66
2024/01/06 08:42:48;;;;;;;11.23;5.55;;;;;;;-2.37;58.46;101104.44;4957472;28;20674;-65
2024/01/06 08:45:14;;;;;;;9.82;5.10;;;;;;;-2.58;58.81;101106.59;4946979;28;20065;-65
2024/01/06 08:47:40;;;;;;;9.65;5.20;;;;;;;-2.35;58.14;101112.16;4952003;28;20034;-66
2024/01/06 08:50:06;;;;;;;7.55;4.60;;;;;;;-2.59;58.90;101112.56;4968812;28;20042;-66
2024/01/06 08:52:32;;;;;;;11.55;5.82;;;;;;;-2.37;58.32;101104.44;4952906;28;20115;-66
2024/01/06 08:54:57;;;;;;;10.05;5.30;;;;;;;-2.50;58.82;101118.72;4953186;28;21320;-67
2024/01/06 08:57:23;;;;;;;8.95;5.05;;;;;;;-2.27;58.08;101126.81;4962720;28;20117;-65
2024/01/06 08:59:48;;;;;;;9.52;5.28;;;;;;;-2.50;58.67;101122.97;4953282;28;20045;-65
2024/01/06 09:02:14;;;;;;;10.35;5.65;;;;;;;-2.44;58.54;101120.53;4939576;28;20037;-67
2024/01/06 09:04:39;;;;;;;8.95;4.90;;;;;;;-2.59;59.19;101133.03;4953792;28;20034;-67
2024/01/06 09:07:05;;;;;;;10.13;5.28;;;;;;;-2.34;58.57;101137.75;4957247;28;20413;-66
2024/01/06 09:09:30;;;;;;;14.23;5.97;;;;;;;-2.35;58.44;101142.88;4957268;28;20038;-65
2024/01/06 09:11:56;;;;;;;7.70;4.50;;;;;;;-2.28;58.14;101145.56;4951092;28;20053;-67
2024/01/06 09:14:21;;;;;;;11.23;5.72;;;;;;;-2.61;59.05;101150.06;4947496;28;20049;-67
2024/01/06 09:16:47;;;;;;;8.57;5.38;;;;;;;-2.49;58.64;101150.28;4951700;28;20034;-63
2024/01/06 09:19:12;;;;;;;10.77;5.90;;;;;;;-2.56;58.90;101153.56;4949295;28;20445;-65
2024/01/06 09:21:38;;;;;;;10.63;5.18;;;;;;;-2.43;58.57;101155.53;4960106;28;20129;-64
2024/01/06 09:24:06;;;;;;;11.25;4.93;;;;;;;-2.46;58.50;101151.22;4958518;28;20070;-64
2024/01/06 09:26:35;;;;;;;10.57;5.93;;;;;;;-2.37;58.23;101160.75;4956239;28;20049;-67
2024/01/06 09:29:01;;;;;;;12.07;5.80;;;;;;;-2.18;57.67;101161.06;4957681;28;20122;-67
2024/01/06 09:31:27;;;;;;;10.20;4.72;;;;;;;-2.18;57.76;101161.06;4958523;28;20505;-64
2024/01/06 09:33:52;;;;;;;10.05;5.15;;;;;;;-2.32;57.83;101168.53;4950256;28;20070;-65
2024/01/06 09:36:18;;;;;;;8.90;4.65;;;;;;;-2.13;57.40;101185.09;4938375;28;20169;-66
2024/01/06 09:38:43;;;;;;;11.48;4.65;;;;;;;-2.08;57.33;101188.59;4953749;28;20073;-66
2024/01/06 09:41:09;;;;;;;12.65;5.35;;;;;;;-2.14;57.57;101193.59;4939793;28;20405;-64
2024/01/06 09:43:35;;;;;;;9.50;4.80;;;;;;;-2.36;57.75;101195.75;4945125;28;20096;-64
2024/01/06 09:46:25;;;;;;;11.20;5.28;;;;;;;-2.50;57.77;101205.72;4946032;28;20106;-64
2024/01/06 09:48:52;;;;;;;9.50;6.20;;;;;;;-2.32;57.83;101194.97;4955332;28;20557;-65
2024/01/06 09:51:19;;;;;;;17.13;6.57;;;;;;;-2.22;57.35;101196.03;4954476;28;20039;-65
2024/01/06 09:53:52;;;;;;;10.52;4.60;;;;;;;-2.62;58.29;101205.50;4988757;28;20046;-65
2024/01/06 09:56:18;;;;;;;6.55;4.85;;;;;;;-2.38;57.83;101209.34;4957606;28;20054;-66
2024/01/06 09:58:44;;;;;;;9.77;5.35;;;;;;;-2.16;57.73;101211.47;4957410;28;20065;-65
2024/01/06 10:01:11;;;;;;;7.95;4.07;;;;;;;-2.05;57.38;101219.34;4956829;28;20138;-64
2024/01/06 10:03:37;;;;;;;10.30;5.18;;;;;;;-2.15;57.85;101225.16;4962225;28;20038;-65
2024/01/06 10:06:04;;;;;;;8.23;4.22;;;;;;;-2.39;58.33;101228.97;4956960;28;20046;-66
2024/01/06 10:08:32;;;;;;;10.13;4.35;;;;;;;-2.19;58.00;101225.94;4955776;28;20037;-64
2024/01/06 10:10:58;;;;;;;6.78;4.18;;;;;;;-2.04;57.39;101223.66;4949473;28;20069;-66
2024/01/06 10:13:24;;;;;;;8.27;4.70;;;;;;;-2.14;57.76;101219.19;4954783;28;20485;-64
2024/01/06 10:15:51;;;;;;;11.95;5.05;;;;;;;-1.97;57.42;101228.06;4959137;28;20043;-64
2024/01/06 10:18:16;;;;;;;11.30;4.90;;;;;;;-2.10;57.67;101226.09;4954295;28;20114;-65
2024/01/06 10:20:44;;;;;;;8.90;4.43;;;;;;;-1.96;57.33;101234.88;4956534;28;20552;-65
2024/01/06 10:23:10;;;;;;;7.50;4.88;;;;;;;-2.11;57.94;101232.94;4957692;28;20038;-65
2024/01/06 10:25:35;;;;;;;10.35;5.38;;;;;;;-2.09;57.77;101238.06;4957278;28;20058;-66
2024/01/06 10:28:04;;;;;;;8.07;4.55;;;;;;;-1.96;57.40;101240.00;4965127;28;20090;-66
2024/01/06 10:30:30;;;;;;;8.60;4.97;;;;;;;-2.00;57.44;101240.78;4957024;28;20043;-67
2024/01/06 10:32:56;;;;;;;9.18;4.80;;;;;;;-2.14;57.71;101237.97;4989321;28;20030;-64
2024/01/06 10:35:21;;;;;;;10.02;4.85;;;;;;;-2.15;57.89;101240.53;4954160;28;20481;-64
2024/01/06 10:37:48;;;;;;;10.48;4.70;;;;;;;-2.25;58.17;101245.47;4957246;28;20624;-67
2024/01/06 10:40:16;;;;;;;12.18;5.63;;;;;;;-2.22;58.37;101250.66;4970705;28;20038;-66
2024/01/06 10:42:42;;;;;;;9.27;4.43;;;;;;;-2.19;57.92;101241.31;4964278;28;20145;-64
2024/01/06 10:45:10;;;;;;;10.25;4.68;;;;;;;-2.34;58.25;101252.97;4986785;28;20038;-68
2024/01/06 10:47:40;;;;;;;8.85;4.43;;;;;;;-2.33;58.42;101259.84;4974346;28;20034;-64
2024/01/06 10:50:07;;;;;;;9.27;4.88;;;;;;;-2.17;57.98;101261.00;4970879;28;20046;-65
2024/01/06 10:52:34;;;;;;;6.85;4.05;;;;;;;-2.32;58.17;101256.44;4957669;28;20030;-64
2024/01/06 10:55:00;;;;;;;9.00;5.70;;;;;;;-2.11;57.57;101258.56;4962441;28;20516;-65
2024/01/06 10:57:28;;;;;;;13.35;4.88;;;;;;;-1.93;56.98;101258.03;4955274;28;20684;-64
2024/01/06 10:59:54;;;;;;;7.50;4.57;;;;;;;-2.29;57.91;101266.75;4936525;28;20054;-63
2024/01/06 11:02:25;;;;;;;7.32;4.47;;;;;;;-2.14;57.36;101271.28;4940685;28;20082;-63
2024/01/06 11:04:51;;;;;;;7.78;4.35;;;;;;;-2.09;56.91;101263.69;4945937;28;20060;-65
2024/01/06 11:07:22;;;;;;;11.80;4.40;;;;;;;-2.10;57.25;101272.22;4948072;28;20047;-63
2024/01/06 11:10:05;;;;;;;8.13;4.37;;;;;;;-2.06;57.09;101279.97;4974571;28;20034;-63
2024/01/06 11:12:31;;;;;;;9.80;3.92;;;;;;;-2.26;57.39;101273.63;4956795;28;20632;-68
2024/01/06 11:14:56;;;;;;;10.38;4.68;;;;;;;-2.06;56.80;101271.44;4956319;28;20066;-65
2024/01/06 11:17:53;;;;;;;8.18;3.70;;;;;;;-2.20;56.98;101271.19;4956848;28;20038;-65
2024/01/06 11:20:22;;;;;;;8.60;4.88;;;;;;;-2.27;56.92;101271.88;4955547;28;20039;-64